Time;durP1;ratioP1;P1;durP2;ratioP2;P2;SDS_P1;SDS_P2;PMS_P1;PMS_P2;Temp;Humidity;BMP_temperature;BMP_pressure;BME280_temperature;BME280_humidity;BME280_pressure;Samples;Min_cycle;Max_cycle;Signal;HPM_P1;HPM_P2
2021/01/12 00:00:18;;;;;;;28.33;14.13;;;4.50;98.90;;;;;;5006161;28;20033;-86
2021/01/12 00:02:44;;;;;;;28.00;14.75;;;4.40;98.90;;;;;;5006413;27;20045;-87
2021/01/12 00:05:10;;;;;;;16.77;9.90;;;4.40;98.90;;;;;;4989584;28;20053;-86
2021/01/12 00:07:36;;;;;;;25.65;15.45;;;4.40;98.90;;;;;;5005168;27;20037;-84
2021/01/12 00:10:02;;;;;;;11.13;6.43;;;4.40;98.90;;;;;;4990223;28;20385;-86
2021/01/12 00:12:28;;;;;;;23.63;10.75;;;4.40;98.90;;;;;;5006098;28;20330;-84
2021/01/12 00:14:53;;;;;;;27.42;12.68;;;4.40;99.00;;;;;;5004466;28;20033;-86
2021/01/12 00:17:19;;;;;;;16.48;9.20;;;4.40;99.00;;;;;;5006018;28;20137;-86
2021/01/12 00:19:45;;;;;;;21.33;11.80;;;4.40;99.00;;;;;;4989008;28;20041;-85
2021/01/12 00:22:14;;;;;;;26.40;13.75;;;4.40;99.00;;;;;;5003172;28;20049;-85
2021/01/12 00:24:41;;;;;;;18.35;9.60;;;4.40;98.90;;;;;;4990064;27;20082;-84
2021/01/12 00:27:07;;;;;;;26.95;12.98;;;4.50;99.00;;;;;;5005584;28;20030;-85
2021/01/12 00:29:33;;;;;;;22.85;12.77;;;4.50;99.00;;;;;;4988086;28;20033;-84
2021/01/12 00:32:00;;;;;;;22.98;13.70;;;4.50;99.10;;;;;;4983674;28;20038;-85
2021/01/12 00:34:26;;;;;;;31.52;17.38;;;4.50;99.10;;;;;;5024423;28;20117;-85
2021/01/12 00:36:52;;;;;;;23.02;13.43;;;4.50;99.10;;;;;;4990689;28;20112;-83
2021/01/12 00:39:18;;;;;;;14.57;8.27;;;4.50;99.40;;;;;;5020831;28;20295;-83
2021/01/12 00:41:48;;;;;;;22.85;10.85;;;4.50;99.10;;;;;;5005177;28;20057;-84
2021/01/12 00:44:13;;;;;;;24.85;14.20;;;4.50;99.10;;;;;;4981844;28;20050;-85
2021/01/12 00:46:42;;;;;;;14.88;5.95;;;4.50;99.10;;;;;;4988148;28;20438;-85
2021/01/12 00:49:07;;;;;;;13.35;7.85;;;4.50;99.10;;;;;;4989244;27;20626;-85
2021/01/12 00:51:34;;;;;;;19.58;9.57;;;4.60;99.20;;;;;;5010676;28;20036;-84
2021/01/12 00:54:00;;;;;;;29.52;16.65;;;4.60;99.10;;;;;;4988696;27;20481;-85
2021/01/12 00:56:25;;;;;;;9.95;6.68;;;4.60;99.20;;;;;;5049452;28;20040;-84
2021/01/12 00:58:51;;;;;;;20.15;11.30;;;4.50;99.20;;;;;;5006021;28;20041;-85
2021/01/12 01:01:16;;;;;;;22.65;13.98;;;4.60;99.20;;;;;;4997698;28;20037;-85
2021/01/12 01:03:42;;;;;;;14.38;9.40;;;4.60;99.20;;;;;;4948607;27;20037;-84
2021/01/12 01:06:08;;;;;;;27.55;14.90;;;4.60;99.30;;;;;;4989398;28;20037;-86
2021/01/12 01:08:35;;;;;;;21.60;11.48;;;4.60;99.20;;;;;;4989424;27;20094;-86
2021/01/12 01:11:02;;;;;;;19.27;9.95;;;4.60;99.20;;;;;;5006203;28;20029;-84
2021/01/12 01:13:28;;;;;;;10.63;5.95;;;4.70;99.30;;;;;;4988982;28;20109;-84
2021/01/12 01:15:53;;;;;;;14.45;9.63;;;4.70;99.30;;;;;;5006275;28;20124;-84
2021/01/12 01:18:19;;;;;;;22.42;13.13;;;4.70;99.30;;;;;;5004966;28;20038;-83
2021/01/12 01:20:44;;;;;;;23.55;12.77;;;4.60;99.30;;;;;;5005215;28;20113;-84
2021/01/12 01:23:10;;;;;;;18.40;10.98;;;4.70;99.30;;;;;;4986460;28;20068;-83
2021/01/12 01:25:36;;;;;;;18.30;9.82;;;4.70;99.40;;;;;;4987536;27;20017;-81
2021/01/12 01:28:01;;;;;;;24.73;12.05;;;4.70;99.40;;;;;;4988330;28;20453;-83
2021/01/12 01:30:27;;;;;;;13.13;7.40;;;4.60;99.30;;;;;;5004926;28;20098;-83
2021/01/12 01:32:53;;;;;;;32.22;13.50;;;4.70;99.50;;;;;;5029528;28;20061;-83
2021/01/12 01:35:19;;;;;;;12.90;7.43;;;4.80;99.50;;;;;;4978140;28;20067;-83
2021/01/12 01:37:44;;;;;;;17.38;10.63;;;4.70;99.40;;;;;;4989082;28;20041;-83
2021/01/12 01:40:10;;;;;;;20.30;10.75;;;4.70;99.40;;;;;;4986390;28;20033;-85
2021/01/12 01:42:39;;;;;;;14.55;8.32;;;4.80;99.50;;;;;;4989348;28;20120;-84
2021/01/12 01:45:07;;;;;;;21.88;11.23;;;4.80;99.50;;;;;;4988265;28;20033;-84
2021/01/12 01:47:33;;;;;;;14.55;9.88;;;4.80;99.40;;;;;;4986490;28;20053;-85
2021/01/12 01:49:59;;;;;;;21.92;10.38;;;4.80;99.40;;;;;;4987850;27;20041;-85
2021/01/12 01:52:25;;;;;;;10.68;6.20;;;4.80;99.50;;;;;;4989201;28;20040;-84
2021/01/12 01:54:53;;;;;;;20.48;11.63;;;4.80;99.50;;;;;;5009391;28;20030;-84
2021/01/12 01:57:18;;;;;;;11.07;6.38;;;4.80;99.50;;;;;;5003216;27;20069;-85
2021/01/12 01:59:44;;;;;;;17.23;10.43;;;4.80;99.50;;;;;;5004599;28;20044;-84
2021/01/12 02:02:09;;;;;;;13.65;8.63;;;4.80;99.50;;;;;;4985996;27;20076;-85
2021/01/12 02:04:37;;;;;;;16.60;10.48;;;4.80;99.50;;;;;;5032362;28;20026;-83
2021/01/12 02:07:03;;;;;;;9.75;6.32;;;4.80;99.80;;;;;;4980303;27;20410;-84
2021/01/12 02:09:51;;;;;;;17.65;11.10;;;4.80;99.50;;;;;;5005766;28;20033;-85
2021/01/12 02:12:27;;;;;;;13.73;8.48;;;4.80;99.50;;;;;;5020079;27;20455;-84
2021/01/12 02:14:53;;;;;;;;;;;4.80;99.50;;;;;;4982731;28;20069;-84
2021/01/12 02:17:18;;;;;;;12.57;7.53;;;4.80;99.50;;;;;;5015683;28;22075;-84
2021/01/12 02:19:44;;;;;;;19.38;10.25;;;4.80;99.50;;;;;;5004708;28;20471;-84
2021/01/12 02:22:18;;;;;;;13.98;9.73;;;4.90;99.60;;;;;;4988477;27;20025;-83
2021/01/12 02:24:44;;;;;;;9.32;5.78;;;4.90;99.50;;;;;;4986731;28;20079;-82
2021/01/12 02:27:09;;;;;;;14.18;7.80;;;4.80;99.50;;;;;;4987879;27;20446;-82
2021/01/12 02:29:35;;;;;;;12.18;6.57;;;4.90;99.60;;;;;;5004622;28;20519;-83
2021/01/12 02:32:00;;;;;;;9.68;5.93;;;5.00;99.60;;;;;;4999496;27;20091;-82
2021/01/12 02:34:26;;;;;;;13.60;8.32;;;4.90;99.50;;;;;;5005170;28;20030;-81
2021/01/12 02:36:52;;;;;;;10.88;6.45;;;4.90;99.60;;;;;;4989732;28;20057;-83
2021/01/12 02:39:18;;;;;;;10.68;4.15;;;4.90;99.60;;;;;;4989051;28;20037;-83
2021/01/12 02:41:43;;;;;;;12.73;7.63;;;4.90;99.60;;;;;;5014267;27;20030;-82
2021/01/12 02:44:18;;;;;;;9.73;5.28;;;4.90;99.60;;;;;;5007534;27;20030;-84
2021/01/12 02:46:43;;;;;;;11.00;7.72;;;4.90;99.60;;;;;;5007656;28;20038;-83
2021/01/12 02:49:09;;;;;;;14.15;7.57;;;4.90;99.60;;;;;;5003328;27;20048;-84
2021/01/12 02:51:35;;;;;;;14.95;7.57;;;4.90;99.60;;;;;;5041017;28;20049;-82
2021/01/12 02:54:01;;;;;;;8.00;4.97;;;4.90;99.60;;;;;;4987077;28;20473;-83
2021/01/12 02:56:26;;;;;;;13.10;6.63;;;4.90;99.60;;;;;;5007346;28;20500;-82
2021/01/12 02:58:52;;;;;;;16.77;9.90;;;4.90;99.60;;;;;;4990530;28;20044;-83
2021/01/12 03:01:17;;;;;;;15.05;8.88;;;4.90;99.60;;;;;;4990706;27;20555;-83
2021/01/12 03:03:43;;;;;;;9.75;6.50;;;4.90;99.60;;;;;;5018860;28;20117;-82
2021/01/12 03:06:08;;;;;;;13.27;7.68;;;4.90;99.60;;;;;;4990045;28;20036;-83
2021/01/12 03:08:34;;;;;;;10.75;7.55;;;4.90;99.60;;;;;;5006427;28;20041;-82
2021/01/12 03:11:00;;;;;;;15.48;7.03;;;4.90;99.60;;;;;;4991254;28;20471;-82
2021/01/12 03:13:25;;;;;;;9.38;4.80;;;4.90;99.60;;;;;;5015614;28;20115;-87
2021/01/12 03:15:51;;;;;;;13.60;8.40;;;4.90;99.70;;;;;;4996188;28;20029;-86
2021/01/12 03:18:16;;;;;;;8.68;6.00;;;4.90;99.60;;;;;;4996756;28;20037;-88
2021/01/12 03:20:43;;;;;;;11.27;5.07;;;4.90;99.60;;;;;;5002689;28;20030;-88
2021/01/12 03:23:09;;;;;;;9.93;5.28;;;4.90;99.60;;;;;;5015457;28;20056;-89
2021/01/12 03:25:34;;;;;;;9.35;5.32;;;4.90;99.70;;;;;;5012498;28;20034;-87
2021/01/12 03:28:00;;;;;;;12.70;8.77;;;4.90;99.70;;;;;;5021212;28;20042;-85
2021/01/12 03:30:26;;;;;;;8.65;5.10;;;5.00;99.80;;;;;;5030139;27;20034;-87
2021/01/12 03:32:52;;;;;;;11.57;6.70;;;5.00;99.80;;;;;;5002156;28;20040;-87
2021/01/12 03:35:18;;;;;;;11.60;6.78;;;5.00;99.80;;;;;;4994686;28;20144;-86
2021/01/12 03:37:44;;;;;;;8.77;5.78;;;5.00;99.80;;;;;;5007003;28;20090;-87
2021/01/12 03:40:09;;;;;;;8.23;5.22;;;5.00;99.90;;;;;;4991347;28;20095;-87
2021/01/12 03:42:35;;;;;;;4.47;2.88;;;5.00;99.80;;;;;;5006827;28;20413;-86
2021/01/12 03:45:01;;;;;;;6.25;5.05;;;5.00;99.80;;;;;;5030265;28;20081;-87
2021/01/12 03:47:27;;;;;;;9.35;5.53;;;5.00;99.80;;;;;;5031733;28;20431;-83
2021/01/12 03:49:53;;;;;;;7.47;4.10;;;5.10;99.90;;;;;;4990021;28;20040;-81
2021/01/12 03:52:18;;;;;;;8.70;5.28;;;5.10;99.80;;;;;;5003972;27;20231;-81
2021/01/12 03:54:44;;;;;;;7.30;4.50;;;5.10;99.90;;;;;;5006145;28;20034;-82
2021/01/12 03:57:09;;;;;;;8.63;6.00;;;5.10;99.90;;;;;;4989478;27;20436;-81
2021/01/12 03:59:35;;;;;;;3.78;2.10;;;5.10;99.90;;;;;;4987949;28;20026;-82
2021/01/12 04:02:01;;;;;;;6.95;5.05;;;5.20;99.90;;;;;;4987368;28;20109;-82
2021/01/12 04:04:26;;;;;;;5.30;3.63;;;5.20;99.90;;;;;;5041442;28;20499;-83
2021/01/12 04:06:52;;;;;;;5.75;3.53;;;5.20;99.90;;;;;;5007073;28;20025;-83
2021/01/12 04:09:17;;;;;;;7.82;5.07;;;5.20;99.90;;;;;;5006507;27;20059;-81
2021/01/12 04:11:44;;;;;;;5.32;3.30;;;5.20;99.90;;;;;;4989850;28;20121;-82
2021/01/12 04:14:10;;;;;;;6.57;4.72;;;5.20;99.90;;;;;;5004180;27;20033;-83
2021/01/12 04:16:35;;;;;;;7.32;3.92;;;5.20;99.90;;;;;;5006121;28;20118;-83
2021/01/12 04:19:01;;;;;;;6.18;3.05;;;5.20;99.90;;;;;;4991819;28;20160;-84
2021/01/12 04:21:26;;;;;;;5.88;3.03;;;5.20;99.90;;;;;;5003763;28;20082;-83
2021/01/12 04:23:52;;;;;;;7.47;3.85;;;5.30;99.90;;;;;;4989736;28;20051;-83
2021/01/12 04:26:18;;;;;;;7.57;5.03;;;5.20;99.90;;;;;;4988618;27;20029;-83
2021/01/12 04:28:44;;;;;;;5.22;3.55;;;5.30;99.90;;;;;;4989730;28;20038;-82
2021/01/12 04:31:09;;;;;;;5.65;2.85;;;5.30;99.90;;;;;;5005075;28;20396;-81
2021/01/12 04:33:35;;;;;;;5.53;4.15;;;5.30;99.90;;;;;;5001937;28;20026;-81
2021/01/12 04:36:00;;;;;;;7.88;5.47;;;5.30;99.90;;;;;;4988612;28;20022;-81
2021/01/12 04:38:26;;;;;;;6.15;4.75;;;5.30;99.90;;;;;;5004041;28;20492;-82
2021/01/12 04:40:51;;;;;;;5.38;3.30;;;5.30;99.90;;;;;;5004764;27;20438;-82
2021/01/12 04:43:17;;;;;;;5.63;2.65;;;5.40;99.90;;;;;;5014998;28;20333;-82
2021/01/12 04:45:42;;;;;;;3.70;2.38;;;5.40;99.90;;;;;;4999103;28;20017;-82
2021/01/12 04:48:08;;;;;;;6.80;3.00;;;5.40;99.90;;;;;;5003891;28;20088;-82
2021/01/12 04:50:34;;;;;;;5.28;3.47;;;5.40;99.90;;;;;;5001372;28;20038;-83
2021/01/12 04:52:59;;;;;;;7.07;4.45;;;5.40;99.90;;;;;;4989108;28;20038;-84
2021/01/12 04:55:25;;;;;;;5.45;2.67;;;5.40;99.90;;;;;;5004872;28;20113;-83
2021/01/12 04:57:51;;;;;;;3.42;2.75;;;5.40;99.90;;;;;;4994717;28;20090;-85
2021/01/12 05:00:25;;;;;;;3.08;1.92;;;5.40;99.90;;;;;;5004811;28;20567;-85
2021/01/12 05:03:07;;;;;;;5.53;3.63;;;5.40;99.90;;;;;;4990185;28;20032;-83
2021/01/12 05:05:36;;;;;;;6.13;3.13;;;5.50;99.90;;;;;;4977211;28;20030;-83
2021/01/12 05:08:15;;;;;;;4.28;2.78;;;5.50;99.90;;;;;;4988734;28;20041;-83
2021/01/12 05:10:41;;;;;;;3.95;2.50;;;5.50;99.90;;;;;;4986945;28;20033;-84
2021/01/12 05:13:08;;;;;;;3.72;2.22;;;5.60;99.90;;;;;;4987969;28;20052;-84
2021/01/12 05:15:35;;;;;;;3.83;3.22;;;5.60;99.90;;;;;;5003543;28;20065;-85
2021/01/12 05:18:02;;;;;;;4.13;3.17;;;5.50;99.90;;;;;;4989360;28;20468;-84
2021/01/12 05:20:27;;;;;;;9.25;2.58;;;5.50;99.90;;;;;;5031757;28;20550;-83
2021/01/12 05:22:58;;;;;;;4.20;2.15;;;5.60;99.90;;;;;;5022221;28;20089;-83
2021/01/12 05:25:33;;;;;;;5.07;3.05;;;5.60;99.90;;;;;;5010611;28;20090;-84
2021/01/12 05:28:00;;;;;;;3.70;2.58;;;5.60;99.90;;;;;;5003578;28;20042;-83
2021/01/12 05:30:26;;;;;;;4.72;4.05;;;5.60;99.90;;;;;;5012776;28;20036;-82
2021/01/12 05:32:52;;;;;;;6.22;3.53;;;5.60;99.90;;;;;;5005028;28;20037;-81
2021/01/12 05:35:18;;;;;;;3.58;2.25;;;5.60;99.90;;;;;;4988748;28;20045;-83
2021/01/12 05:37:44;;;;;;;4.82;3.45;;;5.70;99.90;;;;;;4987211;28;20044;-81
2021/01/12 05:40:10;;;;;;;4.15;2.72;;;5.70;99.90;;;;;;5005309;28;20029;-84
2021/01/12 05:42:39;;;;;;;5.05;3.60;;;5.70;99.90;;;;;;5006505;28;20037;-84
2021/01/12 05:45:09;;;;;;;4.97;3.58;;;5.60;99.90;;;;;;4988310;28;20514;-83
2021/01/12 05:47:34;;;;;;;3.30;2.38;;;5.70;99.90;;;;;;4988530;28;20106;-84
2021/01/12 05:50:00;;;;;;;5.15;3.28;;;5.70;99.90;;;;;;4988847;28;20037;-82
2021/01/12 05:52:26;;;;;;;3.78;2.85;;;5.70;99.90;;;;;;5004188;27;20041;-82
2021/01/12 05:55:02;;;;;;;2.55;1.83;;;5.70;99.90;;;;;;4989128;28;20048;-82
2021/01/12 05:57:28;;;;;;;3.15;2.15;;;5.80;99.90;;;;;;4995154;28;20046;-84
2021/01/12 05:59:54;;;;;;;3.60;2.63;;;5.80;99.90;;;;;;5002526;28;20102;-82
2021/01/12 06:02:20;;;;;;;3.30;2.20;;;5.80;99.90;;;;;;4987521;27;20470;-83
2021/01/12 06:04:45;;;;;;;5.55;3.72;;;5.80;99.90;;;;;;5004960;28;20030;-83
2021/01/12 06:07:11;;;;;;;3.40;2.42;;;5.80;99.90;;;;;;4984139;27;20034;-83
2021/01/12 06:09:39;;;;;;;3.05;2.30;;;5.80;99.90;;;;;;5003618;28;20041;-82
2021/01/12 06:12:06;;;;;;;2.55;1.98;;;5.80;99.90;;;;;;4999463;28;20510;-82
2021/01/12 06:14:32;;;;;;;2.10;1.80;;;5.80;99.90;;;;;;5006387;28;20096;-82
2021/01/12 06:17:00;;;;;;;4.57;2.10;;;5.80;99.90;;;;;;5007346;28;20120;-82
2021/01/12 06:19:27;;;;;;;4.97;2.80;;;5.80;99.90;;;;;;4992394;28;20117;-82
2021/01/12 06:21:55;;;;;;;2.50;1.75;;;5.90;99.90;;;;;;5011240;28;20041;-82
2021/01/12 06:24:38;;;;;;;3.22;2.05;;;5.90;99.90;;;;;;5045611;27;20037;-83
2021/01/12 06:27:07;;;;;;;2.67;1.83;;;5.90;99.90;;;;;;5021682;28;20037;-82
2021/01/12 06:29:33;;;;;;;3.65;2.42;;;5.90;99.90;;;;;;5016272;28;20065;-83
2021/01/12 06:31:59;;;;;;;3.25;1.73;;;5.90;99.90;;;;;;4990693;28;20465;-82
2021/01/12 06:34:25;;;;;;;2.60;1.67;;;5.90;99.90;;;;;;5004966;28;20041;-81
2021/01/12 06:36:57;;;;;;;2.75;1.80;;;5.90;99.90;;;;;;4990608;28;20029;-82
2021/01/12 06:39:23;;;;;;;1.40;1.20;;;6.00;99.90;;;;;;4991181;27;20034;-80
2021/01/12 06:41:49;;;;;;;2.28;1.65;;;6.00;99.90;;;;;;5007118;28;20030;-80
2021/01/12 06:44:23;;;;;;;1.65;1.30;;;6.00;99.90;;;;;;4990810;28;20026;-81
2021/01/12 06:46:49;;;;;;;1.58;1.20;;;6.00;99.90;;;;;;4987797;28;20426;-81
2021/01/12 06:49:24;;;;;;;2.28;0.82;;;6.00;99.90;;;;;;4991590;27;20492;-85
2021/01/12 06:52:01;;;;;;;2.55;1.45;;;6.00;99.90;;;;;;5006032;28;20538;-85
2021/01/12 06:54:37;;;;;;;5.97;1.75;;;6.00;99.90;;;;;;5021675;28;20022;-83
2021/01/12 06:57:23;;;;;;;;;;;6.00;99.90;;;;;;5007212;28;20421;-82
2021/01/12 06:59:52;;;;;;;2.05;1.70;;;6.00;99.90;;;;;;5016296;28;19913;-81
2021/01/12 07:02:24;;;;;;;1.67;1.45;;;6.00;99.90;;;;;;5005136;28;20045;-82
2021/01/12 07:05:05;;;;;;;6.00;2.58;;;6.10;99.90;;;;;;5006622;28;20177;-83
2021/01/12 07:07:31;;;;;;;1.23;1.08;;;6.00;99.90;;;;;;5037362;27;20036;-82
2021/01/12 07:10:00;;;;;;;2.33;1.75;;;6.00;99.90;;;;;;4991852;27;20075;-82
2021/01/12 07:12:27;;;;;;;1.83;1.67;;;6.00;99.90;;;;;;4991084;28;20775;-82
2021/01/12 07:14:54;;;;;;;1.45;1.17;;;6.10;99.90;;;;;;5003610;28;20538;-83
2021/01/12 07:17:30;;;;;;;1.45;1.35;;;6.10;99.90;;;;;;5002052;27;20061;-83
2021/01/12 07:20:08;;;;;;;2.13;1.52;;;6.10;99.90;;;;;;5000703;28;20037;-83
2021/01/12 07:22:35;;;;;;;3.10;1.40;;;6.10;99.90;;;;;;5012481;28;20397;-83
2021/01/12 07:25:01;;;;;;;2.08;1.77;;;6.10;99.90;;;;;;5003905;28;20032;-82
2021/01/12 07:27:27;;;;;;;2.20;1.95;;;6.20;99.90;;;;;;5006651;28;20033;-82
2021/01/12 07:29:52;;;;;;;1.92;1.42;;;6.10;99.90;;;;;;4991023;28;20071;-82
2021/01/12 07:32:34;;;;;;;2.70;2.13;;;6.10;99.90;;;;;;4988277;28;20029;-81
2021/01/12 07:35:08;;;;;;;2.30;1.70;;;6.10;99.90;;;;;;4988367;28;20558;-81
2021/01/12 07:37:38;;;;;;;1.55;1.38;;;6.10;99.90;;;;;;4988280;27;20569;-82
2021/01/12 07:40:06;;;;;;;1.95;1.63;;;6.10;99.90;;;;;;5004629;28;20427;-83
2021/01/12 07:42:32;;;;;;;1.95;1.55;;;6.20;99.90;;;;;;5000727;28;20045;-82
2021/01/12 07:44:57;;;;;;;2.47;1.33;;;6.20;99.90;;;;;;4990774;28;20393;-83
2021/01/12 07:47:23;;;;;;;2.88;1.95;;;6.10;99.90;;;;;;4988647;28;20511;-84
2021/01/12 07:49:49;;;;;;;2.75;2.20;;;6.20;99.90;;;;;;4989930;28;20041;-83
2021/01/12 07:52:17;;;;;;;2.00;1.30;;;6.20;99.90;;;;;;5005206;28;20026;-83
2021/01/12 07:54:42;;;;;;;2.42;1.80;;;6.20;99.90;;;;;;4989423;28;20029;-83
2021/01/12 07:57:09;;;;;;;5.20;3.67;;;6.20;99.90;;;;;;4991212;28;20519;-82
2021/01/12 07:59:35;;;;;;;4.45;3.03;;;6.20;99.90;;;;;;5007213;28;20022;-83
2021/01/12 08:02:01;;;;;;;2.25;1.25;;;6.20;99.90;;;;;;4990170;27;20477;-83
2021/01/12 08:04:27;;;;;;;3.22;2.00;;;6.30;99.90;;;;;;5001176;28;20109;-82
2021/01/12 08:06:52;;;;;;;3.30;2.30;;;6.30;99.90;;;;;;5006573;28;20374;-82
2021/01/12 08:09:21;;;;;;;1.90;1.58;;;6.30;99.90;;;;;;4987727;28;20136;-82
2021/01/12 08:11:48;;;;;;;2.83;2.40;;;6.30;99.90;;;;;;4988517;28;20029;-82
2021/01/12 08:14:14;;;;;;;3.05;2.10;;;6.30;99.90;;;;;;5005497;28;20032;-82
2021/01/12 08:16:45;;;;;;;3.38;2.22;;;6.30;99.90;;;;;;4988923;28;20041;-81
2021/01/12 08:19:12;;;;;;;3.38;2.60;;;6.30;99.90;;;;;;4987985;28;20026;-81
2021/01/12 08:21:41;;;;;;;5.40;2.10;;;6.30;99.90;;;;;;4984945;28;20029;-82
2021/01/12 08:24:08;;;;;;;3.08;2.15;;;6.40;99.90;;;;;;4990563;28;20114;-82
2021/01/12 08:26:34;;;;;;;3.40;3.10;;;6.40;99.90;;;;;;4989809;27;20029;-82
2021/01/12 08:28:59;;;;;;;3.53;2.13;;;6.40;99.90;;;;;;5005893;28;20401;-82
2021/01/12 08:31:25;;;;;;;5.78;3.72;;;6.40;99.90;;;;;;5071564;28;20145;-82
2021/01/12 08:33:51;;;;;;;3.70;3.03;;;6.40;99.90;;;;;;4986716;28;20033;-82
2021/01/12 08:36:17;;;;;;;3.65;2.50;;;6.40;99.90;;;;;;4986365;28;20024;-82
2021/01/12 08:38:43;;;;;;;4.38;3.13;;;6.40;99.90;;;;;;4301161;28;10000459;-83
2021/01/12 08:41:09;;;;;;;3.95;2.47;;;6.40;99.90;;;;;;5089614;28;20397;-84
2021/01/12 08:43:34;;;;;;;2.83;1.98;;;6.40;99.90;;;;;;4997643;28;20030;-83
2021/01/12 08:46:00;;;;;;;4.13;2.70;;;6.50;99.90;;;;;;4989495;28;20493;-83
2021/01/12 08:48:26;;;;;;;9.40;3.58;;;6.50;99.90;;;;;;5002540;28;20034;-83
2021/01/12 08:50:52;;;;;;;9.43;4.30;;;6.50;99.90;;;;;;5005951;28;20362;-82
2021/01/12 08:53:18;;;;;;;3.95;2.97;;;6.50;99.90;;;;;;4988610;28;20278;-84
2021/01/12 08:55:43;;;;;;;3.95;2.63;;;6.60;99.90;;;;;;4989321;28;20038;-82
2021/01/12 08:58:09;;;;;;;5.22;2.33;;;6.60;99.90;;;;;;5005173;28;20041;-84
2021/01/12 09:00:39;;;;;;;3.63;2.40;;;6.60;99.90;;;;;;4988909;28;20033;-83
2021/01/12 09:03:05;;;;;;;3.10;2.22;;;6.60;99.90;;;;;;4988696;28;20492;-84
2021/01/12 09:05:32;;;;;;;4.57;2.20;;;6.60;99.90;;;;;;4987275;27;20021;-84
2021/01/12 09:08:08;;;;;;;3.28;2.45;;;6.60;99.90;;;;;;4990303;28;20442;-84
2021/01/12 09:10:34;;;;;;;6.97;4.05;;;6.60;99.90;;;;;;4988385;28;20033;-83
2021/01/12 09:13:00;;;;;;;6.63;4.03;;;6.70;99.90;;;;;;4981492;28;20624;-83
2021/01/12 09:15:30;;;;;;;10.82;6.32;;;6.70;99.90;;;;;;4989011;28;20076;-83
2021/01/12 09:18:19;;;;;;;6.20;4.70;;;6.70;99.90;;;;;;4987034;27;20042;-82
2021/01/12 09:20:52;;;;;;;11.55;6.40;;;6.70;99.90;;;;;;4999661;28;20041;-82
2021/01/12 09:23:18;;;;;;;10.90;6.38;;;6.80;99.90;;;;;;5000261;28;20118;-81
2021/01/12 09:25:51;;;;;;;15.38;8.93;;;6.80;99.90;;;;;;4990011;28;20564;-83
2021/01/12 09:28:18;;;;;;;10.43;4.65;;;6.80;99.90;;;;;;5003432;28;20077;-84
2021/01/12 09:30:45;;;;;;;12.05;7.20;;;6.80;99.90;;;;;;5003350;28;20389;-84
2021/01/12 09:33:28;;;;;;;16.45;8.07;;;6.90;99.90;;;;;;4989981;27;20033;-84
2021/01/12 09:36:03;;;;;;;10.90;6.57;;;7.00;99.90;;;;;;4989986;27;20446;-84
2021/01/12 09:38:45;;;;;;;15.45;8.38;;;6.90;99.90;;;;;;5020843;27;20037;-85
2021/01/12 09:41:11;;;;;;;16.30;8.27;;;7.00;99.90;;;;;;5004609;28;20026;-85
2021/01/12 09:43:36;;;;;;;10.93;7.50;;;7.00;99.90;;;;;;5005488;28;20120;-84
2021/01/12 09:46:02;;;;;;;11.57;6.32;;;7.10;99.90;;;;;;4989770;28;20078;-86
2021/01/12 09:48:28;;;;;;;7.00;4.55;;;7.00;99.90;;;;;;5022136;28;20156;-86
2021/01/12 09:50:53;;;;;;;10.50;4.18;;;7.10;99.90;;;;;;4994590;27;20049;-86
2021/01/12 09:53:19;;;;;;;11.18;5.78;;;7.10;99.90;;;;;;5006698;27;20033;-86
2021/01/12 09:55:44;;;;;;;14.98;6.13;;;7.10;99.90;;;;;;5031513;28;20477;-85
2021/01/12 09:58:10;;;;;;;8.38;4.72;;;7.20;99.90;;;;;;5005074;28;20060;-85
2021/01/12 10:00:36;;;;;;;12.63;5.60;;;7.10;99.90;;;;;;5007615;28;20030;-85
2021/01/12 10:03:03;;;;;;;9.82;4.85;;;7.20;99.90;;;;;;5006169;28;20033;-84
2021/01/12 10:05:28;;;;;;;12.98;5.20;;;7.20;99.90;;;;;;5007939;28;20052;-84
2021/01/12 10:07:54;;;;;;;7.32;4.57;;;7.30;99.90;;;;;;5004867;28;20068;-84
2021/01/12 10:10:20;;;;;;;7.93;4.05;;;7.30;99.90;;;;;;4990493;27;20121;-84
2021/01/12 10:12:45;;;;;;;6.32;3.83;;;7.30;99.90;;;;;;5009873;28;20426;-84
2021/01/12 10:15:11;;;;;;;5.03;3.10;;;7.30;99.90;;;;;;4991244;28;20040;-85
2021/01/12 10:17:36;;;;;;;8.65;3.58;;;7.30;99.90;;;;;;5004770;28;20382;-85
2021/01/12 10:20:03;;;;;;;7.75;3.40;;;7.30;99.90;;;;;;4992256;28;20282;-84
2021/01/12 10:22:29;;;;;;;7.07;4.20;;;7.20;99.90;;;;;;5046908;28;20362;-84
2021/01/12 10:24:59;;;;;;;9.48;4.00;;;7.20;99.90;;;;;;4987105;28;20078;-85
2021/01/12 10:27:25;;;;;;;5.97;4.75;;;7.20;99.90;;;;;;5001627;27;20026;-87
2021/01/12 10:29:51;;;;;;;9.27;5.25;;;7.20;99.90;;;;;;4996625;28;20112;-87
2021/01/12 10:32:17;;;;;;;7.82;4.32;;;7.10;99.90;;;;;;5007535;28;20519;-86
2021/01/12 10:34:44;;;;;;;6.97;3.70;;;7.20;99.90;;;;;;5005844;27;20105;-84
2021/01/12 10:37:15;;;;;;;6.78;4.78;;;7.20;99.90;;;;;;4992908;27;20497;-85
2021/01/12 10:39:41;;;;;;;7.47;4.05;;;7.20;99.90;;;;;;5003384;27;20148;-86
2021/01/12 10:42:07;;;;;;;6.65;3.70;;;7.20;99.90;;;;;;5008257;28;20462;-85
2021/01/12 10:44:32;;;;;;;5.22;3.38;;;7.10;99.90;;;;;;5004908;28;20118;-86
2021/01/12 10:46:58;;;;;;;5.43;3.78;;;7.10;99.90;;;;;;4992426;28;20067;-85
2021/01/12 10:49:52;;;;;;;9.02;4.15;;;7.10;99.90;;;;;;4993954;28;20038;-84
2021/01/12 10:52:24;;;;;;;6.78;4.53;;;7.10;99.90;;;;;;5009709;27;20030;-86
2021/01/12 10:54:50;;;;;;;5.57;3.55;;;7.10;99.90;;;;;;5022879;28;20026;-85
2021/01/12 10:57:18;;;;;;;6.95;3.63;;;7.00;99.90;;;;;;4989947;27;20528;-85
2021/01/12 10:59:44;;;;;;;6.10;3.60;;;7.00;99.90;;;;;;5005231;28;20034;-85
2021/01/12 11:02:12;;;;;;;5.25;4.07;;;6.90;99.90;;;;;;5009861;27;20033;-86
2021/01/12 11:04:37;;;;;;;4.72;4.00;;;6.90;99.90;;;;;;5019087;28;20486;-85
2021/01/12 11:07:04;;;;;;;4.65;3.35;;;6.90;99.90;;;;;;5013964;27;20111;-83
2021/01/12 11:09:31;;;;;;;8.50;5.22;;;6.90;99.90;;;;;;5005614;28;20029;-83
2021/01/12 11:12:05;;;;;;;5.63;3.70;;;6.80;99.90;;;;;;4985057;28;20417;-85
2021/01/12 11:14:30;;;;;;;6.55;2.85;;;6.80;99.90;;;;;;5008354;28;20491;-85
2021/01/12 11:16:56;;;;;;;4.15;2.78;;;6.80;99.90;;;;;;5011328;28;20060;-85
2021/01/12 11:19:22;;;;;;;5.65;3.53;;;6.80;99.90;;;;;;5009219;28;20045;-86
2021/01/12 11:21:48;;;;;;;3.88;2.70;;;6.80;99.90;;;;;;5004482;28;20029;-86
2021/01/12 11:24:17;;;;;;;6.55;2.70;;;6.70;99.90;;;;;;4989373;28;20030;-85
2021/01/12 11:26:43;;;;;;;4.03;3.13;;;6.70;99.90;;;;;;5019766;27;20030;-83
2021/01/12 11:29:09;;;;;;;6.75;3.67;;;6.70;99.90;;;;;;5006436;28;20044;-84
2021/01/12 11:31:35;;;;;;;5.40;2.30;;;6.70;99.90;;;;;;5008687;28;20043;-83
2021/01/12 11:34:00;;;;;;;2.30;1.50;;;6.60;99.90;;;;;;5024629;28;20481;-83
2021/01/12 11:36:53;;;;;;;2.13;0.88;;;6.60;99.90;;;;;;5010350;27;20021;-84
2021/01/12 11:39:18;;;;;;;4.40;0.70;;;6.50;99.90;;;;;;5023419;27;20541;-83
2021/01/12 11:41:51;;;;;;;1.58;0.93;;;6.50;99.90;;;;;;5006480;28;20029;-88
2021/01/12 11:44:19;;;;;;;2.70;1.05;;;6.40;99.90;;;;;;5009123;28;20484;-86
2021/01/12 11:46:45;;;;;;;2.67;1.13;;;6.40;99.90;;;;;;5040395;28;20033;-86
2021/01/12 11:49:11;;;;;;;2.85;1.13;;;6.60;99.90;;;;;;4994094;28;20029;-86
2021/01/12 11:51:38;;;;;;;3.33;1.35;;;6.50;99.90;;;;;;5009910;28;20429;-87
2021/01/12 11:54:08;;;;;;;2.08;1.10;;;6.50;99.90;;;;;;4995528;28;20121;-84
2021/01/12 11:56:34;;;;;;;3.80;1.27;;;6.60;99.90;;;;;;5001311;28;20067;-85
2021/01/12 11:59:00;;;;;;;3.28;1.02;;;6.50;99.90;;;;;;4993167;28;20045;-87
2021/01/12 12:01:26;;;;;;;4.25;1.42;;;6.50;99.90;;;;;;4995550;27;20497;-85
2021/01/12 12:03:52;;;;;;;3.40;1.10;;;6.70;99.90;;;;;;5022079;28;20033;-86
2021/01/12 12:06:17;;;;;;;4.03;1.60;;;6.70;99.90;;;;;;4646021;28;9999749;-85
2021/01/12 12:08:45;;;;;;;2.72;1.30;;;6.70;99.90;;;;;;4993700;27;20500;-86
2021/01/12 12:11:11;;;;;;;1.98;1.02;;;6.90;99.90;;;;;;5003916;27;20034;-86
2021/01/12 12:13:41;;;;;;;2.72;1.10;;;6.80;99.90;;;;;;5003989;28;20317;-85
2021/01/12 12:16:12;;;;;;;1.75;0.88;;;6.90;99.90;;;;;;4986763;28;20079;-88
2021/01/12 12:18:39;;;;;;;1.85;1.30;;;6.90;99.90;;;;;;4663923;27;10000286;-87
2021/01/12 12:21:05;;;;;;;1.63;1.02;;;6.90;99.90;;;;;;5006559;27;20040;-85
2021/01/12 12:23:41;;;;;;;1.75;1.20;;;6.90;99.90;;;;;;5019183;28;20390;-88
2021/01/12 12:26:15;;;;;;;5.30;1.30;;;6.90;99.90;;;;;;5004967;28;20030;-87
2021/01/12 12:28:42;;;;;;;2.00;1.25;;;6.90;99.90;;;;;;5010173;28;20025;-86
2021/01/12 12:31:13;;;;;;;3.60;0.95;;;7.00;99.90;;;;;;4995609;28;20034;-86
2021/01/12 12:33:39;;;;;;;3.80;0.88;;;7.00;99.90;;;;;;5007078;28;20454;-86
2021/01/12 12:36:06;;;;;;;1.10;0.70;;;7.00;99.90;;;;;;4989348;28;20041;-85
2021/01/12 12:38:34;;;;;;;1.10;0.68;;;7.00;99.90;;;;;;5007368;28;20048;-85
2021/01/12 12:41:07;;;;;;;2.85;0.77;;;7.10;99.90;;;;;;4991279;28;20041;-85
2021/01/12 12:43:32;;;;;;;1.25;0.70;;;7.10;99.90;;;;;;4992916;28;20113;-85
2021/01/12 12:45:58;;;;;;;1.77;0.73;;;7.10;99.90;;;;;;4996368;27;20145;-86
2021/01/12 12:48:27;;;;;;;1.58;0.60;;;7.00;99.90;;;;;;5019948;27;20037;-85
2021/01/12 12:50:55;;;;;;;2.00;0.73;;;7.10;99.90;;;;;;5031521;28;20030;-86
2021/01/12 12:53:22;;;;;;;1.20;0.70;;;7.00;99.90;;;;;;5038906;28;20525;-86